Terminal Aerodrome Forecast
Issued by NWS

Home | Current Version | Previous Version | Text Only | Print | Product List | Glossary On
Versions: 1 2 3 4 5 6 7 8 9 10 11 12 13 14 15 16 17 18 19 20 21
018
FTUS43 KDLH 261131
TAFHIB
TAF
KHIB 261131Z 2612/2712 VRB02KT P6SM VCSH BKN080
     FM261500 28007KT P6SM VCSH BKN080
     FM261800 33007KT P6SM BKN100
     FM270200 VRB03KT 6SM BR SCT100 BKN200=

USA.gov is the U.S. government's official web portal to all federal, state and local government web resources and services.